createdAt,value
2023-12-23T00:12:49.749Z,989.6
2023-12-23T00:17:54.865Z,989.7
2023-12-23T00:23:00.938Z,989.8
2023-12-23T00:28:07.047Z,989.8
2023-12-23T00:33:13.129Z,989.8
2023-12-23T00:43:25.309Z,990
2023-12-23T00:48:31.445Z,990.1
2023-12-23T00:58:43.577Z,990.4
2023-12-23T01:03:49.668Z,990.7
2023-12-23T01:14:01.858Z,991
2023-12-23T01:19:07.946Z,991.2
2023-12-23T01:24:13.049Z,991.2
2023-12-23T01:29:19.133Z,991.4
2023-12-23T01:34:25.235Z,991.6
2023-12-23T01:49:43.506Z,992
2023-12-23T01:54:49.598Z,992.2
2023-12-23T01:59:55.691Z,992.2
2023-12-23T02:05:01.781Z,992.3
2023-12-23T02:10:07.885Z,992.3
2023-12-23T02:15:13.955Z,992.4
2023-12-23T02:20:20.049Z,992.5
2023-12-23T02:30:32.244Z,992.7
2023-12-23T02:40:43.438Z,992.9
2023-12-23T02:45:49.525Z,992.9
2023-12-23T02:50:55.612Z,993
2023-12-23T02:56:01.701Z,993.1
2023-12-23T03:01:07.796Z,993.2
2023-12-23T03:06:13.885Z,993.3
2023-12-23T03:21:32.154Z,993.4
2023-12-23T03:26:38.249Z,993.4
2023-12-23T03:31:44.347Z,993.6
2023-12-23T03:36:50.425Z,993.6
2023-12-23T03:41:55.531Z,993.7
2023-12-23T03:47:01.630Z,993.8
2023-12-23T03:52:07.706Z,993.9
2023-12-23T03:57:13.808Z,993.9
2023-12-23T04:02:19.899Z,993.9
2023-12-23T04:07:25.986Z,993.9
2023-12-23T04:12:32.084Z,994
2023-12-23T04:17:38.202Z,994.1
2023-12-23T04:22:44.264Z,994.1
2023-12-23T04:27:50.360Z,994.2
2023-12-23T04:32:56.450Z,994.1
2023-12-23T04:38:02.545Z,994.1
2023-12-23T04:43:08.628Z,994.1
2023-12-23T04:48:13.736Z,994.2
2023-12-23T04:53:19.833Z,994.1
2023-12-23T05:03:32.034Z,993.9
2023-12-23T05:13:43.213Z,994.1
2023-12-23T05:18:48.320Z,994
2023-12-23T05:23:54.421Z,993.9
2023-12-23T05:29:00.505Z,993.9
2023-12-23T05:34:06.594Z,994
2023-12-23T05:39:12.695Z,994.1
2023-12-23T05:44:18.774Z,994
2023-12-23T05:49:24.878Z,993.9
2023-12-23T05:54:30.959Z,994
2023-12-23T06:04:43.140Z,993.8
2023-12-23T06:09:49.238Z,993.8
2023-12-23T06:14:55.322Z,993.8
2023-12-23T06:20:01.413Z,993.8
2023-12-23T06:25:06.531Z,993.7
2023-12-23T06:35:18.709Z,993.5
2023-12-23T06:40:24.838Z,993.5
2023-12-23T06:45:30.909Z,993.4
2023-12-23T06:55:43.079Z,993.4
2023-12-23T07:00:49.167Z,993.4
2023-12-23T07:05:55.275Z,993.4
2023-12-23T07:11:01.363Z,993.3
2023-12-23T07:16:07.442Z,993.4
2023-12-23T07:21:13.534Z,993.3
2023-12-23T07:31:25.704Z,993.1
2023-12-23T07:36:30.812Z,993.1
2023-12-23T07:51:49.097Z,993.1
2023-12-23T07:56:55.196Z,992.9
2023-12-23T08:02:01.297Z,992.9
2023-12-23T08:07:07.362Z,992.9
2023-12-23T08:12:13.458Z,992.9
2023-12-23T08:17:19.549Z,993
2023-12-23T08:22:25.640Z,993
2023-12-23T08:27:31.724Z,993
2023-12-23T08:32:37.822Z,993.1
2023-12-23T08:37:43.912Z,993.1
2023-12-23T08:42:49.022Z,993
2023-12-23T08:47:55.116Z,993
2023-12-23T08:53:01.188Z,993
2023-12-23T08:58:07.282Z,993
2023-12-23T09:03:13.373Z,993
2023-12-23T09:08:19.464Z,993.2
2023-12-23T09:13:25.565Z,993.1
2023-12-23T09:18:31.652Z,993.2
2023-12-23T09:28:43.834Z,993.2
2023-12-23T09:33:49.923Z,993.2
2023-12-23T09:38:55.043Z,993.1
2023-12-23T09:44:00.168Z,993.2
2023-12-23T09:49:06.244Z,993.3
2023-12-23T09:54:12.333Z,993.2
2023-12-23T09:59:18.447Z,993.3
2023-12-23T10:04:24.510Z,993.3
2023-12-23T10:09:30.620Z,993.3
2023-12-23T10:24:48.896Z,993.3
2023-12-23T10:29:54.977Z,993.2
2023-12-23T10:35:01.066Z,993.1
2023-12-23T10:40:06.173Z,993.1
2023-12-23T10:45:11.280Z,993.1
2023-12-23T10:50:17.367Z,993.1
2023-12-23T10:55:23.484Z,993.2
2023-12-23T11:00:29.562Z,993.2
2023-12-23T11:10:41.735Z,993.2
2023-12-23T11:15:47.827Z,993.2
2023-12-23T11:20:53.925Z,993.3
2023-12-23T11:26:00.010Z,993.3
2023-12-23T11:31:06.096Z,993.4
2023-12-23T11:46:24.378Z,993.4
2023-12-23T11:51:29.477Z,993.5
2023-12-23T12:01:41.659Z,993.6
2023-12-23T12:06:47.757Z,993.5
2023-12-23T12:11:53.857Z,993.7
2023-12-23T12:16:59.943Z,993.6
2023-12-23T12:22:06.033Z,993.5
2023-12-23T12:27:12.129Z,993.4
2023-12-23T12:37:24.394Z,993.4
2023-12-23T12:42:30.393Z,993.4
2023-12-23T12:52:42.586Z,993.4
2023-12-23T12:57:47.693Z,993.5
2023-12-23T13:02:53.885Z,993.5
2023-12-23T13:07:59.857Z,993.6
2023-12-23T13:13:05.954Z,993.7
2023-12-23T13:23:18.136Z,993.7
2023-12-23T13:28:24.224Z,993.9
2023-12-23T13:33:30.310Z,993.9
2023-12-23T13:53:54.697Z,994.1
2023-12-23T13:59:00.778Z,994.2
2023-12-23T14:09:11.976Z,994.3
2023-12-23T14:14:18.068Z,994.4
2023-12-23T14:19:24.158Z,994.5
2023-12-23T14:29:36.359Z,994.8
2023-12-23T14:34:42.435Z,994.9
2023-12-23T14:39:48.537Z,994.9
2023-12-23T14:44:54.621Z,994.9
2023-12-23T14:50:00.700Z,994.9
2023-12-23T14:55:06.806Z,995
2023-12-23T15:00:12.888Z,995.1
2023-12-23T15:05:18.975Z,995.1
2023-12-23T15:10:24.089Z,995.2
2023-12-23T15:15:30.166Z,995.3
2023-12-23T15:30:48.439Z,995.6
2023-12-23T15:35:54.534Z,995.8
2023-12-23T15:41:00.624Z,995.9
2023-12-23T15:46:06.721Z,996
2023-12-23T16:01:24.994Z,996
2023-12-23T16:16:43.271Z,996.2
2023-12-23T16:21:48.387Z,996.2
2023-12-23T16:26:54.495Z,996.2
2023-12-23T16:32:00.544Z,996.3
2023-12-23T16:37:06.651Z,996.3
2023-12-23T16:42:12.754Z,996.3
2023-12-23T16:52:24.944Z,996.5
2023-12-23T16:57:31.018Z,996.5
2023-12-23T17:07:43.271Z,996.5
2023-12-23T17:12:49.289Z,996.6
2023-12-23T17:17:55.364Z,996.5
2023-12-23T17:23:01.480Z,996.6
2023-12-23T17:28:06.569Z,996.6
2023-12-23T17:33:12.678Z,996.6
2023-12-23T17:38:18.759Z,996.6
2023-12-23T17:43:24.843Z,996.5
2023-12-23T17:48:31.076Z,996.5
2023-12-23T18:03:49.213Z,996.3
2023-12-23T18:08:55.296Z,996.2
2023-12-23T18:14:01.420Z,996.2
2023-12-23T18:19:07.494Z,996.4
2023-12-23T18:24:13.577Z,996.5
2023-12-23T18:29:19.661Z,996.6
2023-12-23T18:34:24.765Z,996.6
2023-12-23T18:39:30.860Z,996.7
2023-12-23T18:44:36.950Z,996.8
2023-12-23T18:49:43.036Z,996.8
2023-12-23T18:54:49.140Z,996.8
2023-12-23T18:59:55.224Z,996.9
2023-12-23T19:05:01.307Z,997.1
2023-12-23T19:10:07.425Z,997.1
2023-12-23T19:20:19.589Z,997.3
2023-12-23T19:25:25.674Z,997.3
2023-12-23T19:30:31.765Z,997.3
2023-12-23T19:35:37.867Z,997.3
2023-12-23T19:40:43.949Z,997.3
2023-12-23T19:45:49.052Z,997.4
2023-12-23T19:50:54.176Z,997.5
2023-12-23T19:55:59.283Z,997.5
2023-12-23T20:06:11.465Z,997.5
2023-12-23T20:11:17.555Z,997.6
2023-12-23T20:16:23.650Z,997.6
2023-12-23T20:21:29.732Z,997.7
2023-12-23T20:26:35.821Z,997.7
2023-12-23T20:31:41.915Z,997.7
2023-12-23T20:36:48.009Z,997.7
2023-12-23T20:41:54.102Z,997.7
2023-12-23T20:47:00.205Z,997.8
2023-12-23T20:52:06.278Z,997.8
2023-12-23T20:57:12.374Z,997.7
2023-12-23T21:07:23.577Z,997.7
2023-12-23T21:12:28.693Z,997.6
2023-12-23T21:22:39.989Z,997.6
2023-12-23T21:27:45.981Z,997.6
2023-12-23T21:32:52.098Z,997.6
2023-12-23T21:37:58.162Z,997.6
2023-12-23T21:43:04.260Z,997.5
2023-12-23T21:48:10.393Z,997.6
2023-12-23T21:53:16.430Z,997.6
2023-12-23T21:58:22.520Z,997.6
2023-12-23T22:03:28.632Z,997.7
2023-12-23T22:13:40.792Z,997.6
2023-12-23T22:18:46.937Z,997.6
2023-12-23T22:23:52.037Z,997.5
2023-12-23T22:28:58.087Z,997.5
2023-12-23T22:34:04.177Z,997.6
2023-12-23T22:39:10.261Z,997.5
2023-12-23T22:44:16.354Z,997.6
2023-12-23T22:49:22.442Z,997.6
2023-12-23T22:54:28.537Z,997.5
2023-12-23T23:09:46.799Z,997.5
2023-12-23T23:14:52.905Z,997.6
2023-12-23T23:19:58.993Z,997.6
2023-12-23T23:25:05.085Z,997.6
2023-12-23T23:30:10.198Z,997.5
2023-12-23T23:40:22.385Z,997.6
2023-12-23T23:55:40.661Z,997.7
